createdAt,value
2023-01-26T00:01:31.145Z,101942.13
2023-01-26T00:03:58.142Z,101934.28
2023-01-26T00:06:25.698Z,101930.84
2023-01-26T00:08:57.115Z,101936.00
2023-01-26T00:11:27.083Z,101936.81
2023-01-26T00:13:56.583Z,101927.25
2023-01-26T00:16:24.433Z,101936.00
2023-01-26T00:18:51.332Z,101929.81
2023-01-26T00:21:23.565Z,101926.22
2023-01-26T00:23:51.731Z,101930.44
2023-01-26T00:26:22.944Z,101926.06
2023-01-26T00:28:50.828Z,101919.03
2023-01-26T00:31:24.011Z,101919.84
2023-01-26T00:33:51.866Z,101916.41
2023-01-26T00:36:18.943Z,101906.69
2023-01-26T00:38:46.139Z,101912.81
2023-01-26T00:41:31.389Z,101914.56
2023-01-26T00:43:58.152Z,101906.47
2023-01-26T00:46:25.009Z,101903.00
2023-01-26T00:48:51.856Z,101889.03
2023-01-26T00:51:18.684Z,101890.78
2023-01-26T00:53:45.435Z,101887.41
2023-01-26T00:56:14.638Z,101883.88
2023-01-26T00:58:42.182Z,101890.91
2023-01-26T01:01:09.008Z,101886.63
2023-01-26T01:03:35.860Z,101877.16
2023-01-26T01:06:02.651Z,101865.03
2023-01-26T01:08:29.448Z,101861.59
2023-01-26T01:11:11.330Z,101875.72
2023-01-26T01:13:39.078Z,101874.91
2023-01-26T01:16:12.474Z,101867.97
2023-01-26T01:18:39.688Z,101868.88
2023-01-26T01:21:12.915Z,101861.91
2023-01-26T01:23:39.971Z,101870.56
2023-01-26T01:26:07.390Z,101872.38
2023-01-26T01:28:35.442Z,101872.38
2023-01-26T01:31:12.064Z,101871.56
2023-01-26T01:33:39.217Z,101872.38
2023-01-26T01:36:10.478Z,101858.47
2023-01-26T01:38:37.298Z,101856.69
2023-01-26T01:41:04.451Z,101861.09
2023-01-26T01:43:31.303Z,101861.09
2023-01-26T01:46:00.898Z,101862.06
2023-01-26T01:48:52.213Z,101849.78
2023-01-26T01:51:31.352Z,101844.56
2023-01-26T01:54:04.600Z,101842.78
2023-01-26T01:56:33.558Z,101831.31
2023-01-26T01:59:02.805Z,101834.03
2023-01-26T02:01:30.238Z,101837.59
2023-01-26T02:04:01.263Z,101827.22
2023-01-26T02:06:40.979Z,101828.13
2023-01-26T02:09:29.255Z,101817.56
2023-01-26T02:11:57.764Z,101820.19
2023-01-26T02:14:25.538Z,101814.03
2023-01-26T02:16:52.306Z,101816.75
2023-01-26T02:19:52.535Z,101817.56
2023-01-26T02:22:51.722Z,101813.16
2023-01-26T02:25:58.131Z,101802.53
2023-01-26T02:28:27.150Z,101807.78
2023-01-26T02:30:56.163Z,101805.16
2023-01-26T02:33:29.350Z,101806.88
2023-01-26T02:35:56.178Z,101813.91
2023-01-26T02:38:26.109Z,101813.91
2023-01-26T02:41:03.359Z,101806.88
2023-01-26T02:43:30.274Z,101802.53
2023-01-26T02:45:57.090Z,101807.03
2023-01-26T02:48:43.413Z,101802.69
2023-01-26T02:51:10.627Z,101803.53
2023-01-26T02:53:37.383Z,101813.16
2023-01-26T02:56:04.325Z,101805.16
2023-01-26T02:58:31.091Z,101806.81
2023-01-26T03:00:58.001Z,101806.75
2023-01-26T03:03:41.692Z,101811.16
2023-01-26T03:06:12.898Z,101799.69
2023-01-26T03:08:40.033Z,101798.81
2023-01-26T03:11:09.042Z,101803.13
2023-01-26T03:13:36.158Z,101800.53
2023-01-26T03:16:08.226Z,101805.84
2023-01-26T03:18:55.004Z,101797.00
2023-01-26T03:21:40.203Z,101804.81
2023-01-26T03:24:31.907Z,101803.91
2023-01-26T03:27:17.794Z,101801.16
2023-01-26T03:29:45.413Z,101800.16
2023-01-26T03:32:12.521Z,101796.72
2023-01-26T03:34:39.284Z,101793.13
2023-01-26T03:37:06.447Z,101799.25
2023-01-26T03:39:51.686Z,101804.66
2023-01-26T03:42:36.778Z,101796.72
2023-01-26T03:45:23.119Z,101791.50
2023-01-26T03:48:08.273Z,101787.06
2023-01-26T03:50:53.655Z,101781.72
2023-01-26T03:53:42.314Z,101785.22
2023-01-26T03:56:22.176Z,101788.75
2023-01-26T03:58:55.446Z,101780.91
2023-01-26T04:01:28.894Z,101791.34
2023-01-26T04:04:15.618Z,101789.56
2023-01-26T04:07:03.724Z,101793.88
2023-01-26T04:09:31.840Z,101794.78
2023-01-26T04:11:59.145Z,101788.66
2023-01-26T04:14:49.824Z,101787.88
2023-01-26T04:17:37.355Z,101778.41
2023-01-26T04:20:25.050Z,101780.13
2023-01-26T04:22:52.623Z,101779.22
2023-01-26T04:25:21.816Z,101777.59
2023-01-26T04:27:48.624Z,101769.88
2023-01-26T04:30:17.305Z,101762.03
2023-01-26T04:32:46.050Z,101762.16
2023-01-26T04:35:12.959Z,101755.13
2023-01-26T04:37:39.877Z,101752.50
2023-01-26T04:40:07.974Z,101748.25
2023-01-26T04:42:35.489Z,101752.59
2023-01-26T04:45:02.256Z,101751.69
2023-01-26T04:47:29.564Z,101751.78
2023-01-26T04:49:56.450Z,101743.03
2023-01-26T04:52:23.311Z,101745.72
2023-01-26T04:54:50.812Z,101743.16
2023-01-26T04:57:20.513Z,101742.34
2023-01-26T04:59:47.315Z,101749.25
2023-01-26T05:02:14.092Z,101743.16
2023-01-26T05:04:40.886Z,101744.97
2023-01-26T05:07:07.666Z,101747.66
2023-01-26T05:09:34.439Z,101746.78
2023-01-26T05:12:21.218Z,101742.44
2023-01-26T05:14:47.992Z,101732.88
2023-01-26T05:17:14.746Z,101730.25
2023-01-26T05:19:41.561Z,101733.81
2023-01-26T05:22:08.506Z,101725.97
2023-01-26T05:24:35.447Z,101730.47
2023-01-26T05:27:20.641Z,101736.59
2023-01-26T05:29:48.496Z,101738.22
2023-01-26T05:32:15.363Z,101748.63
2023-01-26T05:34:42.148Z,101741.66
2023-01-26T05:37:08.952Z,101748.69
2023-01-26T05:39:35.752Z,101750.50
2023-01-26T05:42:02.538Z,101743.47
2023-01-26T05:44:29.709Z,101740.03
2023-01-26T05:46:56.563Z,101734.81
2023-01-26T05:49:23.348Z,101744.44
2023-01-26T05:51:50.129Z,101748.78
2023-01-26T05:54:16.908Z,101752.34
2023-01-26T05:56:43.733Z,101746.22
2023-01-26T05:59:10.597Z,101754.06
2023-01-26T06:02:40.101Z,101755.06
2023-01-26T06:05:07.929Z,101757.53
2023-01-26T06:07:34.889Z,101757.53
2023-01-26T06:10:01.705Z,101751.44
2023-01-26T06:12:31.550Z,101751.44
2023-01-26T06:14:58.749Z,101755.88
2023-01-26T06:17:25.596Z,101748.91
2023-01-26T06:19:52.372Z,101759.47
2023-01-26T06:22:19.813Z,101751.53
2023-01-26T06:24:46.958Z,101756.84
2023-01-26T06:27:16.658Z,101760.41
2023-01-26T06:29:44.499Z,101749.94
2023-01-26T06:32:12.817Z,101754.25
2023-01-26T06:34:40.403Z,101753.34
2023-01-26T06:37:07.635Z,101758.50
2023-01-26T06:39:34.451Z,101759.47
2023-01-26T06:42:02.181Z,101762.91
2023-01-26T06:44:28.971Z,101761.25
2023-01-26T06:46:55.756Z,101763.03
2023-01-26T06:49:22.532Z,101755.34
2023-01-26T06:52:28.225Z,101758.78
2023-01-26T06:54:58.980Z,101768.44
2023-01-26T06:57:26.210Z,101763.22
2023-01-26T06:59:52.984Z,101759.75
2023-01-26T07:02:22.333Z,101761.63
2023-01-26T07:04:50.434Z,101759.91
2023-01-26T07:07:17.289Z,101767.81
2023-01-26T07:09:44.101Z,101756.44
2023-01-26T07:12:10.873Z,101755.63
2023-01-26T07:14:37.709Z,101756.59
2023-01-26T07:17:04.679Z,101759.25
2023-01-26T07:19:33.181Z,101760.16
2023-01-26T07:22:00.981Z,101775.13
2023-01-26T07:24:28.169Z,101768.19
2023-01-26T07:26:55.773Z,101762.09
2023-01-26T07:29:22.785Z,101764.78
2023-01-26T07:31:49.789Z,101756.13
2023-01-26T07:34:16.612Z,101761.41
2023-01-26T07:36:43.472Z,101771.97
2023-01-26T07:39:10.324Z,101758.94
2023-01-26T07:41:37.090Z,101761.63
2023-01-26T07:44:07.733Z,101764.31
2023-01-26T07:46:34.612Z,101765.31
2023-01-26T07:49:01.383Z,101764.44
2023-01-26T07:51:28.134Z,101763.72
2023-01-26T07:53:54.898Z,101764.59
2023-01-26T07:56:21.787Z,101766.38
2023-01-26T07:58:53.384Z,101767.44
2023-01-26T08:01:21.285Z,101774.41
2023-01-26T08:03:51.477Z,101772.00
2023-01-26T08:06:18.554Z,101765.03
2023-01-26T08:08:50.973Z,101771.22
2023-01-26T08:11:19.433Z,101774.81
2023-01-26T08:13:46.280Z,101774.00
2023-01-26T08:16:13.356Z,101779.38
2023-01-26T08:18:46.161Z,101774.25
2023-01-26T08:21:15.537Z,101779.66
2023-01-26T08:23:42.701Z,101779.69
2023-01-26T08:26:13.091Z,101785.91
2023-01-26T08:28:40.677Z,101778.06
2023-01-26T08:31:15.188Z,101778.25
2023-01-26T08:33:42.835Z,101776.53
2023-01-26T08:36:13.170Z,101774.94
2023-01-26T08:38:40.028Z,101783.84
2023-01-26T08:41:07.239Z,101789.16
2023-01-26T08:43:34.741Z,101792.72
2023-01-26T08:46:01.977Z,101793.69
2023-01-26T08:48:31.064Z,101792.88
2023-01-26T08:51:00.403Z,101784.94
2023-01-26T08:53:30.498Z,101782.41
2023-01-26T08:55:57.271Z,101785.84
2023-01-26T08:58:24.106Z,101796.31
2023-01-26T09:00:50.950Z,101793.69
2023-01-26T09:03:17.982Z,101786.75
2023-01-26T09:05:44.784Z,101794.53
2023-01-26T09:08:13.912Z,101781.34
2023-01-26T09:10:40.746Z,101789.28
2023-01-26T09:13:07.589Z,101798.94
2023-01-26T09:15:34.344Z,101790.09
2023-01-26T09:18:01.991Z,101793.53
2023-01-26T09:20:28.791Z,101785.63
2023-01-26T09:22:55.569Z,101789.06
2023-01-26T09:25:22.412Z,101791.69
2023-01-26T09:27:49.154Z,101789.97
2023-01-26T09:30:16.744Z,101790.88
2023-01-26T09:32:43.764Z,101789.00
2023-01-26T09:35:14.255Z,101782.94
2023-01-26T09:37:43.879Z,101784.72
2023-01-26T09:40:23.018Z,101784.72
2023-01-26T09:43:25.503Z,101780.22
2023-01-26T09:46:16.907Z,101784.59
2023-01-26T09:48:57.181Z,101782.00
2023-01-26T09:51:37.934Z,101771.56
2023-01-26T09:54:28.416Z,101781.28
2023-01-26T09:56:56.250Z,101780.44
2023-01-26T09:59:44.430Z,101770.94
2023-01-26T10:03:02.485Z,101767.34
2023-01-26T10:06:01.380Z,101769.22
2023-01-26T10:08:28.374Z,101775.47
2023-01-26T10:11:02.603Z,101770.50
2023-01-26T10:13:30.488Z,101775.88
2023-01-26T10:16:03.005Z,101767.31
2023-01-26T10:18:37.471Z,101770.06
2023-01-26T10:21:07.480Z,101766.69
2023-01-26T10:23:35.975Z,101765.91
2023-01-26T10:26:16.634Z,101759.94
2023-01-26T10:28:46.268Z,101766.06
2023-01-26T10:31:17.614Z,101760.03
2023-01-26T10:33:57.907Z,101763.66
2023-01-26T10:36:25.367Z,101761.06
2023-01-26T10:38:52.713Z,101756.78
2023-01-26T10:41:26.546Z,101752.56
2023-01-26T10:43:58.144Z,101750.03
2023-01-26T10:46:45.245Z,101739.44
2023-01-26T10:49:16.660Z,101745.59
2023-01-26T10:51:47.102Z,101737.84
2023-01-26T10:54:20.254Z,101735.38
2023-01-26T10:57:17.492Z,101728.44
2023-01-26T10:59:57.252Z,101727.63
2023-01-26T11:02:30.575Z,101719.75
2023-01-26T11:05:09.765Z,101722.44
2023-01-26T11:07:43.070Z,101726.03
2023-01-26T11:10:26.994Z,101719.88
2023-01-26T11:13:21.344Z,101716.41
2023-01-26T11:16:08.953Z,101713.88
2023-01-26T11:18:42.793Z,101708.81
2023-01-26T11:21:23.909Z,101710.00
2023-01-26T11:24:08.521Z,101710.25
2023-01-26T11:27:14.027Z,101716.56
2023-01-26T11:30:24.141Z,101713.16
2023-01-26T11:33:04.168Z,101712.25
2023-01-26T11:35:54.333Z,101710.53
2023-01-26T11:38:39.585Z,101709.59
2023-01-26T11:41:13.872Z,101706.00
2023-01-26T11:44:14.593Z,101701.44
2023-01-26T11:47:36.611Z,101692.56
2023-01-26T11:50:35.574Z,101687.13
2023-01-26T11:53:34.047Z,101687.13
2023-01-26T11:56:25.834Z,101681.00
2023-01-26T11:59:06.632Z,101676.75
2023-01-26T12:01:43.645Z,101677.72
2023-01-26T12:04:20.228Z,101677.00
2023-01-26T12:06:55.381Z,101673.50
2023-01-26T12:09:46.811Z,101670.88
2023-01-26T12:12:38.092Z,101667.41
2023-01-26T12:15:13.798Z,101662.97
2023-01-26T12:18:02.211Z,101660.34
2023-01-26T12:20:50.911Z,101656.84
2023-01-26T12:23:28.017Z,101655.03
2023-01-26T12:26:20.675Z,101645.38
2023-01-26T12:29:05.922Z,101657.59
2023-01-26T12:31:44.675Z,101651.47
2023-01-26T12:34:13.551Z,101658.47
2023-01-26T12:37:21.211Z,101648.88
2023-01-26T12:40:16.304Z,101642.81
2023-01-26T12:42:58.588Z,101638.47
2023-01-26T12:45:34.398Z,101635.78
2023-01-26T12:48:24.281Z,101639.28
2023-01-26T12:51:01.397Z,101635.00
2023-01-26T12:53:39.999Z,101626.28
2023-01-26T12:56:28.878Z,101630.69
2023-01-26T12:58:58.564Z,101628.06
2023-01-26T13:01:38.170Z,101617.59
2023-01-26T13:04:13.108Z,101618.59
2023-01-26T13:06:40.298Z,101610.72
2023-01-26T13:09:23.476Z,101617.75
2023-01-26T13:11:59.891Z,101622.09
2023-01-26T13:14:39.934Z,101618.50
2023-01-26T13:17:15.787Z,101624.66
2023-01-26T13:19:42.455Z,101617.47
2023-01-26T13:22:24.096Z,101622.72
2023-01-26T13:24:57.171Z,101614.75
2023-01-26T13:27:45.831Z,101618.06
2023-01-26T13:30:31.112Z,101617.13
2023-01-26T13:33:24.637Z,101613.53
2023-01-26T13:35:54.518Z,101608.28
2023-01-26T13:38:43.339Z,101608.28
2023-01-26T13:41:19.258Z,101609.25
2023-01-26T13:44:10.328Z,101612.78
2023-01-26T13:46:45.773Z,101618.06
2023-01-26T13:49:41.348Z,101610.31
2023-01-26T13:52:26.521Z,101612.13
2023-01-26T13:54:57.631Z,101619.13
2023-01-26T13:57:27.974Z,101630.59
2023-01-26T14:00:01.986Z,101627.16
2023-01-26T14:02:34.960Z,101628.72
2023-01-26T14:05:03.295Z,101632.13
2023-01-26T14:07:41.852Z,101628.63
2023-01-26T14:10:18.667Z,101625.09
2023-01-26T14:12:58.684Z,101642.56
2023-01-26T14:15:29.088Z,101641.63
2023-01-26T14:18:05.150Z,101645.16
2023-01-26T14:20:39.808Z,101648.50
2023-01-26T14:23:14.958Z,101648.50
2023-01-26T14:26:04.877Z,101657.06
2023-01-26T14:28:37.001Z,101653.41
2023-01-26T14:31:24.955Z,101658.59
2023-01-26T14:33:58.674Z,101645.16
2023-01-26T14:36:33.044Z,101652.91
2023-01-26T14:39:01.066Z,101652.72
2023-01-26T14:41:34.260Z,101664.88
2023-01-26T14:44:06.028Z,101654.38
2023-01-26T14:47:15.015Z,101642.13
2023-01-26T14:49:49.431Z,101654.34
2023-01-26T14:52:26.195Z,101656.06
2023-01-26T14:54:56.677Z,101646.47
2023-01-26T14:57:27.505Z,101647.50
2023-01-26T14:59:57.493Z,101650.22
2023-01-26T15:02:44.577Z,101643.34
2023-01-26T15:05:24.287Z,101642.53
2023-01-26T15:08:00.583Z,101655.72
2023-01-26T15:10:41.080Z,101654.91
2023-01-26T15:13:10.768Z,101654.91
2023-01-26T15:15:41.093Z,101651.47
2023-01-26T15:18:14.060Z,101650.56
2023-01-26T15:21:15.287Z,101643.50
2023-01-26T15:23:53.096Z,101650.47
2023-01-26T15:26:31.184Z,101647.88
2023-01-26T15:29:01.272Z,101651.31
2023-01-26T15:31:41.688Z,101649.66
2023-01-26T15:34:32.565Z,101646.13
2023-01-26T15:37:00.334Z,101644.41
2023-01-26T15:39:27.610Z,101647.94
2023-01-26T15:42:16.263Z,101651.56
2023-01-26T15:44:43.086Z,101647.97
2023-01-26T15:47:11.962Z,101653.22
2023-01-26T15:49:39.287Z,101652.41
2023-01-26T15:52:20.516Z,101662.88
2023-01-26T15:54:47.338Z,101655.81
2023-01-26T15:57:14.303Z,101652.28
2023-01-26T15:59:41.263Z,101653.22
2023-01-26T16:02:15.687Z,101648.88
2023-01-26T16:04:43.373Z,101656.81
2023-01-26T16:07:19.230Z,101663.84
2023-01-26T16:09:48.154Z,101661.22
2023-01-26T16:12:31.565Z,101668.19
2023-01-26T16:14:59.514Z,101664.69
2023-01-26T16:17:26.492Z,101659.44
2023-01-26T16:19:53.289Z,101659.44
2023-01-26T16:22:20.267Z,101657.81
2023-01-26T16:24:47.286Z,101655.13
2023-01-26T16:27:14.060Z,101655.13
2023-01-26T16:29:40.840Z,101656.03
2023-01-26T16:32:28.919Z,101658.66
2023-01-26T16:34:55.807Z,101656.03
2023-01-26T16:37:22.671Z,101653.47
2023-01-26T16:39:49.449Z,101655.28
2023-01-26T16:42:21.086Z,101650.03
2023-01-26T16:44:48.176Z,101640.38
2023-01-26T16:47:15.045Z,101648.22
2023-01-26T16:49:41.837Z,101650.94
2023-01-26T16:52:09.853Z,101650.94
2023-01-26T16:54:36.868Z,101657.06
2023-01-26T16:57:03.852Z,101650.13
2023-01-26T16:59:30.681Z,101648.50
2023-01-26T17:01:57.643Z,101651.09
2023-01-26T17:04:24.463Z,101650.25
2023-01-26T17:06:51.306Z,101656.47
2023-01-26T17:09:18.140Z,101661.81
2023-01-26T17:11:44.915Z,101650.41
2023-01-26T17:14:12.736Z,101658.25
2023-01-26T17:16:45.459Z,101659.09
2023-01-26T17:19:12.329Z,101659.91
2023-01-26T17:21:39.095Z,101667.91
2023-01-26T17:24:07.058Z,101674.13
2023-01-26T17:26:33.890Z,101674.13
2023-01-26T17:29:00.751Z,101675.91
2023-01-26T17:31:28.551Z,101672.38
2023-01-26T17:33:55.744Z,101673.28
2023-01-26T17:36:22.570Z,101673.28
2023-01-26T17:38:49.630Z,101661.00
2023-01-26T17:41:21.143Z,101672.47
2023-01-26T17:43:51.281Z,101673.28
2023-01-26T17:46:20.262Z,101683.78
2023-01-26T17:48:48.265Z,101685.56
2023-01-26T17:51:19.301Z,101693.50
2023-01-26T17:53:49.465Z,101694.38
2023-01-26T17:56:19.363Z,101696.19
2023-01-26T17:58:52.900Z,101695.41
2023-01-26T18:01:25.056Z,101705.00
2023-01-26T18:03:53.766Z,101702.31
2023-01-26T18:06:21.317Z,101706.78
2023-01-26T18:08:48.481Z,101700.66
2023-01-26T18:11:16.874Z,101709.41
2023-01-26T18:13:44.001Z,101704.16
2023-01-26T18:16:15.851Z,101699.75
2023-01-26T18:18:43.207Z,101704.16
2023-01-26T18:21:23.655Z,101704.16
2023-01-26T18:23:54.183Z,101699.75
2023-01-26T18:26:24.184Z,101707.63
2023-01-26T18:28:51.615Z,101709.41
2023-01-26T18:31:22.259Z,101707.72
2023-01-26T18:33:49.164Z,101706.78
2023-01-26T18:36:19.722Z,101708.50
2023-01-26T18:38:59.200Z,101710.25
2023-01-26T18:41:27.819Z,101720.72
2023-01-26T18:43:57.791Z,101718.13
2023-01-26T18:46:26.106Z,101710.25
2023-01-26T18:48:54.675Z,101718.97
2023-01-26T18:51:22.590Z,101705.84
2023-01-26T18:53:49.547Z,101714.63
2023-01-26T18:56:17.174Z,101711.13
2023-01-26T18:58:44.407Z,101706.75
2023-01-26T19:01:14.786Z,101713.88
2023-01-26T19:03:47.150Z,101724.38
2023-01-26T19:06:19.689Z,101719.13
2023-01-26T19:08:55.290Z,101722.53
2023-01-26T19:11:22.082Z,101725.97
2023-01-26T19:13:48.883Z,101724.25
2023-01-26T19:16:15.691Z,101720.72
2023-01-26T19:18:42.459Z,101725.16
2023-01-26T19:21:09.996Z,101723.47
2023-01-26T19:23:39.789Z,101719.13
2023-01-26T19:26:15.297Z,101729.63
2023-01-26T19:28:42.277Z,101728.72
2023-01-26T19:31:10.315Z,101729.63
2023-01-26T19:33:37.996Z,101730.50
2023-01-26T19:36:06.862Z,101734.94
2023-01-26T19:38:34.638Z,101731.41
2023-01-26T19:41:02.406Z,101740.09
2023-01-26T19:43:29.523Z,101734.84
2023-01-26T19:45:57.149Z,101735.66
2023-01-26T19:48:33.019Z,101730.41
2023-01-26T19:51:21.824Z,101725.25
2023-01-26T19:53:53.454Z,101734.84
2023-01-26T19:56:29.691Z,101730.59
2023-01-26T19:59:00.260Z,101735.88
2023-01-26T20:01:28.884Z,101740.22
2023-01-26T20:04:01.957Z,101734.97
2023-01-26T20:06:31.828Z,101734.06
2023-01-26T20:08:59.743Z,101727.00
2023-01-26T20:11:29.367Z,101720.91
2023-01-26T20:13:58.003Z,101728.78
2023-01-26T20:16:27.776Z,101717.47
2023-01-26T20:18:59.022Z,101730.63
2023-01-26T20:21:27.098Z,101720.13
2023-01-26T20:23:55.714Z,101725.38
2023-01-26T20:26:25.536Z,101715.72
2023-01-26T20:28:53.742Z,101721.03
2023-01-26T20:31:24.428Z,101722.81
2023-01-26T20:33:54.005Z,101717.69
2023-01-26T20:36:25.750Z,101724.72
2023-01-26T20:38:53.219Z,101717.78
2023-01-26T20:41:25.220Z,101717.78
2023-01-26T20:44:00.864Z,101724.84
2023-01-26T20:46:38.539Z,101723.03
2023-01-26T20:49:08.491Z,101723.03
2023-01-26T20:51:38.049Z,101724.84
2023-01-26T20:54:06.832Z,101731.00
2023-01-26T20:56:33.869Z,101729.25
2023-01-26T20:59:02.072Z,101738.94
2023-01-26T21:01:28.999Z,101740.75
2023-01-26T21:03:55.843Z,101739.94
2023-01-26T21:06:24.088Z,101740.84
2023-01-26T21:08:55.220Z,101733.03
2023-01-26T21:11:24.939Z,101740.06
2023-01-26T21:13:52.081Z,101739.16
2023-01-26T21:16:19.818Z,101733.03
2023-01-26T21:18:46.664Z,101733.97
2023-01-26T21:21:17.768Z,101737.50
2023-01-26T21:23:45.815Z,101733.09
2023-01-26T21:26:16.163Z,101732.25
2023-01-26T21:28:43.184Z,101741.78
2023-01-26T21:31:14.936Z,101740.13
2023-01-26T21:33:44.978Z,101739.31
2023-01-26T21:36:15.427Z,101736.72
2023-01-26T21:38:45.373Z,101732.31
2023-01-26T21:41:35.065Z,101735.00
2023-01-26T21:44:11.922Z,101731.47
2023-01-26T21:46:38.743Z,101730.59
2023-01-26T21:49:06.450Z,101729.75
2023-01-26T21:51:52.237Z,101735.00
2023-01-26T21:54:19.113Z,101735.84
2023-01-26T21:56:46.003Z,101726.19
2023-01-26T21:59:15.371Z,101728.91
2023-01-26T22:01:49.572Z,101728.91
2023-01-26T22:04:36.620Z,101728.00
2023-01-26T22:07:03.414Z,101734.16
2023-01-26T22:09:30.452Z,101733.41
2023-01-26T22:11:57.223Z,101731.66
2023-01-26T22:14:27.485Z,101741.31
2023-01-26T22:16:54.292Z,101736.91
2023-01-26T22:19:21.048Z,101729.91
2023-01-26T22:21:47.989Z,101731.66
2023-01-26T22:24:14.997Z,101730.81
2023-01-26T22:26:41.884Z,101737.88
2023-01-26T22:29:11.520Z,101734.41
2023-01-26T22:31:38.330Z,101724.81
2023-01-26T22:34:05.318Z,101726.66
2023-01-26T22:36:33.229Z,101729.28
2023-01-26T22:39:00.539Z,101729.28
2023-01-26T22:41:30.326Z,101732.78
2023-01-26T22:43:59.654Z,101737.22
2023-01-26T22:46:29.174Z,101722.38
2023-01-26T22:48:57.489Z,101723.22
2023-01-26T22:51:30.343Z,101726.81
2023-01-26T22:53:59.081Z,101737.31
2023-01-26T22:56:27.108Z,101738.22
2023-01-26T22:59:00.465Z,101740.97
2023-01-26T23:01:30.118Z,101745.31
2023-01-26T23:03:58.874Z,101744.47
2023-01-26T23:06:26.503Z,101733.97
2023-01-26T23:08:53.777Z,101741.03
2023-01-26T23:11:27.552Z,101734.06
2023-01-26T23:13:56.461Z,101744.56
2023-01-26T23:16:24.330Z,101735.84
2023-01-26T23:18:57.020Z,101730.63
2023-01-26T23:21:25.661Z,101728.97
2023-01-26T23:23:52.500Z,101727.25
2023-01-26T23:26:20.407Z,101732.53
2023-01-26T23:28:47.428Z,101730.78
2023-01-26T23:31:17.916Z,101734.25
2023-01-26T23:33:50.544Z,101735.22
2023-01-26T23:36:17.332Z,101727.28
2023-01-26T23:38:45.630Z,101737.03
2023-01-26T23:41:12.740Z,101731.81
2023-01-26T23:43:39.640Z,101737.06
2023-01-26T23:46:07.753Z,101729.19
2023-01-26T23:48:34.661Z,101731.88
2023-01-26T23:51:09.545Z,101737.13
2023-01-26T23:53:36.778Z,101737.13
2023-01-26T23:56:09.269Z,101730.16
2023-01-26T23:58:39.988Z,101727.53
